createdAt,value
2024-04-18T00:00:27.047Z,8.15
2024-04-18T00:02:54.973Z,9.27
2024-04-18T00:05:34.509Z,9.50
2024-04-18T00:08:02.420Z,7.63
2024-04-18T00:10:32.801Z,7.70
2024-04-18T00:13:03.199Z,7.88
2024-04-18T00:15:33.592Z,7.30
2024-04-18T00:18:01.518Z,6.63
2024-04-18T00:20:32.195Z,7.35
2024-04-18T00:23:18.648Z,7.25
2024-04-18T00:26:09.006Z,7.95
2024-04-18T00:28:59.338Z,7.55
2024-04-18T00:31:29.751Z,7.93
2024-04-18T00:34:00.945Z,8.85
2024-04-18T00:36:47.967Z,8.18
2024-04-18T00:39:25.137Z,7.85
2024-04-18T00:42:04.779Z,7.32
2024-04-18T00:44:35.308Z,7.20
2024-04-18T00:47:20.898Z,6.90
2024-04-18T00:50:02.810Z,8.82
2024-04-18T00:52:42.740Z,7.00
2024-04-18T00:55:27.678Z,9.02
2024-04-18T00:58:18.373Z,7.97
2024-04-18T01:00:50.874Z,8.18
2024-04-18T01:03:36.265Z,7.25
2024-04-18T01:06:08.483Z,9.23
2024-04-18T01:08:52.155Z,9.88
2024-04-18T01:11:31.301Z,8.60
2024-04-18T01:14:09.415Z,7.32
2024-04-18T01:16:53.693Z,7.32
2024-04-18T01:19:24.292Z,7.45
2024-04-18T01:21:52.861Z,8.13
2024-04-18T01:24:23.370Z,7.40
2024-04-18T01:26:54.003Z,7.53
2024-04-18T01:29:44.513Z,8.38
2024-04-18T01:32:27.162Z,9.40
2024-04-18T01:34:57.766Z,8.73
2024-04-18T01:37:28.816Z,8.70
2024-04-18T01:40:17.007Z,10.63
2024-04-18T01:42:47.822Z,7.68
2024-04-18T01:45:27.766Z,8.30
2024-04-18T01:48:09.658Z,8.82
2024-04-18T01:50:54.048Z,9.47
2024-04-18T01:53:32.920Z,9.30
2024-04-18T01:56:03.325Z,8.18
2024-04-18T01:58:47.995Z,9.48
2024-04-18T02:01:18.476Z,8.00
2024-04-18T02:03:46.481Z,9.13
2024-04-18T02:06:17.160Z,10.63
2024-04-18T02:08:47.896Z,8.90
2024-04-18T02:11:21.248Z,8.82
2024-04-18T02:14:12.061Z,8.75
2024-04-18T02:16:42.438Z,7.77
2024-04-18T02:19:24.228Z,8.30
2024-04-18T02:22:08.538Z,7.55
2024-04-18T02:24:38.413Z,8.13
2024-04-18T02:27:08.964Z,7.55
2024-04-18T02:29:39.401Z,7.83
2024-04-18T02:32:09.933Z,7.38
2024-04-18T02:34:37.766Z,7.40
2024-04-18T02:37:31.498Z,8.80
2024-04-18T02:39:59.513Z,9.43
2024-04-18T02:42:30.322Z,7.40
2024-04-18T02:45:01.903Z,7.03
2024-04-18T02:47:53.453Z,8.40
2024-04-18T02:50:34.198Z,8.07
2024-04-18T02:53:04.791Z,6.95
2024-04-18T02:55:32.594Z,7.37
2024-04-18T02:58:03.010Z,8.32
2024-04-18T03:00:39.214Z,7.50
2024-04-18T03:03:09.772Z,8.35
2024-04-18T03:06:05.718Z,7.15
2024-04-18T03:08:33.611Z,7.13
2024-04-18T03:11:22.241Z,8.05
2024-04-18T03:14:04.146Z,6.93
2024-04-18T03:16:37.208Z,9.43
2024-04-18T03:19:19.116Z,8.27
2024-04-18T03:21:56.113Z,7.20
2024-04-18T03:24:24.899Z,7.05
2024-04-18T03:26:56.239Z,6.28
2024-04-18T03:29:24.395Z,8.15
2024-04-18T03:32:03.444Z,7.45
2024-04-18T03:34:45.439Z,6.97
2024-04-18T03:37:15.790Z,7.50
2024-04-18T03:39:46.320Z,8.73
2024-04-18T03:42:16.966Z,8.48
2024-04-18T03:44:58.607Z,7.15
2024-04-18T03:47:33.605Z,7.60
2024-04-18T03:50:12.724Z,5.90
2024-04-18T03:52:40.840Z,9.13
2024-04-18T03:55:40.467Z,7.47
2024-04-18T03:58:08.827Z,7.60
2024-04-18T04:00:53.377Z,6.60
2024-04-18T04:03:23.987Z,7.95
2024-04-18T04:05:55.690Z,8.55
2024-04-18T04:08:23.546Z,6.65
2024-04-18T04:11:14.147Z,7.75
2024-04-18T04:13:42.093Z,7.93
2024-04-18T04:16:22.454Z,7.90
2024-04-18T04:19:12.952Z,8.15
2024-04-18T04:21:53.143Z,7.93
2024-04-18T04:24:21.067Z,6.43
2024-04-18T04:26:55.088Z,7.50
2024-04-18T04:29:23.439Z,8.40
2024-04-18T04:31:53.780Z,8.32
2024-04-18T04:34:24.213Z,7.32
2024-04-18T04:36:54.644Z,8.43
2024-04-18T04:39:22.544Z,6.63
2024-04-18T04:41:53.003Z,6.72
2024-04-18T04:44:20.821Z,8.88
2024-04-18T04:46:52.831Z,8.23
2024-04-18T04:49:23.975Z,6.85
2024-04-18T04:52:14.744Z,7.00
2024-04-18T04:54:44.172Z,7.57
2024-04-18T04:57:15.474Z,8.55
2024-04-18T04:59:44.596Z,6.93
2024-04-18T05:02:15.344Z,7.38
2024-04-18T05:04:52.193Z,7.77
2024-04-18T05:07:38.710Z,6.60
2024-04-18T05:10:23.033Z,7.13
2024-04-18T05:12:51.772Z,5.88
2024-04-18T05:15:36.541Z,9.50
2024-04-18T05:18:05.443Z,8.03
2024-04-18T05:20:39.063Z,6.53
2024-04-18T05:23:08.570Z,7.63
2024-04-18T05:25:39.583Z,5.82
2024-04-18T05:28:31.634Z,5.90
2024-04-18T05:31:06.547Z,7.10
2024-04-18T05:33:38.035Z,6.85
2024-04-18T05:36:11.817Z,6.07
2024-04-18T05:38:42.250Z,6.25
2024-04-18T05:41:12.941Z,6.60
2024-04-18T05:44:11.775Z,5.90
2024-04-18T05:47:05.149Z,7.85
2024-04-18T05:49:35.552Z,6.63
2024-04-18T05:52:08.485Z,6.93
2024-04-18T05:54:43.836Z,6.57
2024-04-18T05:57:14.134Z,6.77
2024-04-18T05:59:53.392Z,8.38
2024-04-18T06:02:24.531Z,6.53
2024-04-18T06:04:54.874Z,6.05
2024-04-18T06:07:44.910Z,5.25
2024-04-18T06:10:16.601Z,5.80
2024-04-18T06:12:44.330Z,4.40
2024-04-18T06:15:14.572Z,4.68
2024-04-18T06:17:44.769Z,5.50
2024-04-18T06:20:15.013Z,6.15
2024-04-18T06:22:47.973Z,4.20
2024-04-18T06:25:27.707Z,4.38
2024-04-18T06:27:57.971Z,4.32
2024-04-18T06:30:28.408Z,5.18
2024-04-18T06:32:58.701Z,3.83
2024-04-18T06:35:29.013Z,3.93
2024-04-18T06:38:02.267Z,3.78
2024-04-18T06:40:32.464Z,5.80
2024-04-18T06:43:02.806Z,4.15
2024-04-18T06:45:34.224Z,5.47
2024-04-18T06:48:04.731Z,5.40
2024-04-18T06:50:35.376Z,6.25
2024-04-18T06:53:08.640Z,3.88
2024-04-18T06:55:39.560Z,4.18
2024-04-18T06:58:09.836Z,4.68
2024-04-18T07:00:42.488Z,4.30
2024-04-18T07:03:15.213Z,4.18
2024-04-18T07:05:54.695Z,4.88
2024-04-18T07:08:28.328Z,6.20
2024-04-18T07:11:00.577Z,5.85
2024-04-18T07:13:35.219Z,5.23
2024-04-18T07:16:21.974Z,4.90
2024-04-18T07:18:58.893Z,4.60
2024-04-18T07:21:29.273Z,4.60
2024-04-18T07:24:17.080Z,5.03
2024-04-18T07:26:47.386Z,4.27
2024-04-18T07:29:17.643Z,5.88
2024-04-18T07:31:47.935Z,5.45
2024-04-18T07:34:18.504Z,6.15
2024-04-18T07:36:50.276Z,5.63
2024-04-18T07:39:23.350Z,4.90
2024-04-18T07:41:53.591Z,4.60
2024-04-18T07:44:25.099Z,3.90
2024-04-18T07:46:55.667Z,4.72
2024-04-18T07:49:25.918Z,6.68
2024-04-18T07:51:57.564Z,4.47
2024-04-18T07:54:30.636Z,4.30
2024-04-18T07:57:01.780Z,3.78
2024-04-18T07:59:33.276Z,5.25
2024-04-18T08:02:05.170Z,3.45
2024-04-18T08:04:52.705Z,4.57
2024-04-18T08:07:29.203Z,3.85
2024-04-18T08:10:08.418Z,4.03
2024-04-18T08:12:45.510Z,3.55
2024-04-18T08:15:23.465Z,5.70
2024-04-18T08:17:57.972Z,3.47
2024-04-18T08:20:28.423Z,3.67
2024-04-18T08:22:58.642Z,3.40
2024-04-18T08:25:31.467Z,4.20
2024-04-18T08:28:01.707Z,3.53
2024-04-18T08:30:32.063Z,4.23
2024-04-18T08:33:02.443Z,4.25
2024-04-18T08:35:32.757Z,3.95
2024-04-18T08:38:02.971Z,4.18
2024-04-18T08:40:35.815Z,4.10
2024-04-18T08:43:06.269Z,3.67
2024-04-18T08:45:37.920Z,3.25
2024-04-18T08:48:09.658Z,3.50
2024-04-18T08:50:41.953Z,2.90
2024-04-18T08:53:13.771Z,3.78
2024-04-18T08:55:51.182Z,3.63
2024-04-18T08:58:24.429Z,2.92
2024-04-18T09:00:54.698Z,2.80
2024-04-18T09:03:22.467Z,2.63
2024-04-18T09:05:52.733Z,3.05
2024-04-18T09:08:23.009Z,3.00
2024-04-18T09:10:56.186Z,3.35
2024-04-18T09:13:27.219Z,3.30
2024-04-18T09:15:57.578Z,3.38
2024-04-18T09:18:28.463Z,2.40
2024-04-18T09:20:59.016Z,2.40
2024-04-18T09:23:29.414Z,3.03
2024-04-18T09:26:02.240Z,2.45
2024-04-18T09:28:32.553Z,2.92
2024-04-18T09:31:05.888Z,2.60
2024-04-18T09:33:37.283Z,2.87
2024-04-18T09:36:08.629Z,2.65
2024-04-18T09:38:40.676Z,3.30
2024-04-18T09:41:19.160Z,2.90
2024-04-18T09:43:56.770Z,3.70
2024-04-18T09:46:28.106Z,3.27
2024-04-18T09:48:59.196Z,3.45
2024-04-18T09:51:31.528Z,3.78
2024-04-18T09:54:02.400Z,3.88
2024-04-18T09:56:35.761Z,3.78
2024-04-18T09:59:07.491Z,2.87
2024-04-18T10:01:39.797Z,4.15
2024-04-18T10:04:10.129Z,3.97
2024-04-18T10:06:42.985Z,3.08
2024-04-18T10:09:14.060Z,2.90
2024-04-18T10:11:46.924Z,3.33
2024-04-18T10:14:17.713Z,3.00
2024-04-18T10:16:52.048Z,2.35
2024-04-18T10:19:23.942Z,3.08
2024-04-18T10:22:11.673Z,3.35
2024-04-18T10:24:52.952Z,3.17
2024-04-18T10:27:24.070Z,2.40
2024-04-18T10:29:59.062Z,3.33
2024-04-18T10:32:31.868Z,3.63
2024-04-18T10:35:02.556Z,2.90
2024-04-18T10:37:32.769Z,2.80
2024-04-18T10:40:03.085Z,2.67
2024-04-18T10:42:38.490Z,3.10
2024-04-18T10:45:09.203Z,2.85
2024-04-18T10:47:39.937Z,3.67
2024-04-18T10:50:10.912Z,4.20
2024-04-18T10:52:41.642Z,2.95
2024-04-18T10:55:11.871Z,5.22
2024-04-18T10:57:44.712Z,4.55
2024-04-18T11:00:18.714Z,5.45
2024-04-18T11:02:49.084Z,2.63
2024-04-18T11:05:19.387Z,4.78
2024-04-18T11:07:52.178Z,4.50
2024-04-18T11:10:22.712Z,3.75
2024-04-18T11:12:57.240Z,4.20
2024-04-18T11:15:27.669Z,4.73
2024-04-18T11:17:58.123Z,4.13
2024-04-18T11:20:30.513Z,3.90
2024-04-18T11:23:08.730Z,5.85
2024-04-18T11:25:44.065Z,3.90
2024-04-18T11:28:17.012Z,4.10
2024-04-18T11:30:47.541Z,4.15
2024-04-18T11:33:23.149Z,4.07
2024-04-18T11:35:55.074Z,5.57
2024-04-18T11:38:25.741Z,4.55
2024-04-18T11:40:55.925Z,3.57
2024-04-18T11:43:28.692Z,4.03
2024-04-18T11:45:59.075Z,3.25
2024-04-18T11:48:29.559Z,3.30
2024-04-18T11:50:59.953Z,5.65
2024-04-18T11:53:30.519Z,3.67
2024-04-18T11:56:04.250Z,4.13
2024-04-18T11:58:38.026Z,3.97
2024-04-18T12:01:09.657Z,5.63
2024-04-18T12:03:43.752Z,4.35
2024-04-18T12:06:28.557Z,3.73
2024-04-18T12:08:59.123Z,4.57
2024-04-18T12:11:33.748Z,4.07
2024-04-18T12:14:20.625Z,3.75
2024-04-18T12:17:00.566Z,4.88
2024-04-18T12:19:46.217Z,3.90
2024-04-18T12:22:30.826Z,3.45
2024-04-18T12:25:15.535Z,3.85
2024-04-18T12:27:45.934Z,4.50
2024-04-18T12:30:33.197Z,3.75
2024-04-18T12:33:17.692Z,7.00
2024-04-18T12:35:49.177Z,3.78
2024-04-18T12:38:19.790Z,4.38
2024-04-18T12:40:50.455Z,4.68
2024-04-18T12:43:21.400Z,4.05
2024-04-18T12:46:10.933Z,3.70
2024-04-18T12:48:55.766Z,5.20
2024-04-18T12:51:26.432Z,4.45
2024-04-18T12:53:57.631Z,7.38
2024-04-18T12:56:42.513Z,5.03
2024-04-18T12:59:26.084Z,4.93
2024-04-18T13:01:56.756Z,3.83
2024-04-18T13:04:27.430Z,5.15
2024-04-18T13:06:58.608Z,4.97
2024-04-18T13:09:32.399Z,3.65
2024-04-18T13:12:03.185Z,3.83
2024-04-18T13:14:53.966Z,4.07
2024-04-18T13:17:27.394Z,4.63
2024-04-18T13:20:03.080Z,3.88
2024-04-18T13:22:33.587Z,4.05
2024-04-18T13:25:04.013Z,5.13
2024-04-18T13:27:34.686Z,4.13
2024-04-18T13:30:08.053Z,3.80
2024-04-18T13:32:39.607Z,3.78
2024-04-18T13:35:11.028Z,5.50
2024-04-18T13:37:41.626Z,5.07
2024-04-18T13:40:22.070Z,5.78
2024-04-18T13:43:01.393Z,5.97
2024-04-18T13:45:34.087Z,3.88
2024-04-18T13:48:08.391Z,3.72
2024-04-18T13:50:48.695Z,3.50
2024-04-18T13:53:19.141Z,6.47
2024-04-18T13:55:50.971Z,5.18
2024-04-18T13:58:24.085Z,3.70
2024-04-18T14:01:02.947Z,4.18
2024-04-18T14:03:36.522Z,5.43
2024-04-18T14:06:09.581Z,4.63
2024-04-18T14:08:40.682Z,3.72
2024-04-18T14:11:25.188Z,4.03
2024-04-18T14:14:11.603Z,5.10
2024-04-18T14:17:07.143Z,5.07
2024-04-18T14:19:40.239Z,4.30
2024-04-18T14:22:10.736Z,3.42
2024-04-18T14:24:41.595Z,3.78
2024-04-18T14:27:20.531Z,4.07
2024-04-18T14:30:05.276Z,4.33
2024-04-18T14:32:39.540Z,4.45
2024-04-18T14:35:12.804Z,4.15
2024-04-18T14:37:43.441Z,5.20
2024-04-18T14:40:14.291Z,3.70
2024-04-18T14:42:44.715Z,4.43
2024-04-18T14:45:15.949Z,4.45
2024-04-18T14:47:46.477Z,4.70
2024-04-18T14:50:19.525Z,3.80
2024-04-18T14:52:49.945Z,4.07
2024-04-18T14:55:34.494Z,5.33
2024-04-18T14:58:18.803Z,3.38
2024-04-18T15:00:54.810Z,4.15
2024-04-18T15:03:25.657Z,4.88
2024-04-18T15:06:18.699Z,3.55
2024-04-18T15:09:03.936Z,3.40
2024-04-18T15:11:34.774Z,3.88
2024-04-18T15:14:04.500Z,4.40
2024-04-18T15:16:35.024Z,5.38
2024-04-18T15:19:05.552Z,4.57
2024-04-18T15:21:52.859Z,4.73
2024-04-18T15:24:24.059Z,3.90
2024-04-18T15:27:05.174Z,4.88
2024-04-18T15:29:35.658Z,4.53
2024-04-18T15:32:21.383Z,4.72
2024-04-18T15:34:52.719Z,5.17
2024-04-18T15:37:39.683Z,4.95
2024-04-18T15:40:14.457Z,6.35
2024-04-18T15:43:06.166Z,5.05
2024-04-18T15:45:41.751Z,5.40
2024-04-18T15:48:26.346Z,5.07
2024-04-18T15:50:54.446Z,4.47
2024-04-18T15:53:37.127Z,6.15
2024-04-18T15:56:11.320Z,6.55
2024-04-18T15:58:56.151Z,7.07
2024-04-18T16:01:27.209Z,6.07
2024-04-18T16:04:11.677Z,5.65
2024-04-18T16:06:56.053Z,6.15
2024-04-18T16:09:43.383Z,5.75
2024-04-18T16:12:27.099Z,6.57
2024-04-18T16:15:05.093Z,5.23
2024-04-18T16:17:36.323Z,5.00
2024-04-18T16:20:15.800Z,7.15
2024-04-18T16:22:46.184Z,6.07
2024-04-18T16:25:36.070Z,6.18
2024-04-18T16:28:06.890Z,6.33
2024-04-18T16:30:48.971Z,5.68
2024-04-18T16:33:19.860Z,6.25
2024-04-18T16:35:50.341Z,5.70
2024-04-18T16:38:20.793Z,5.75
2024-04-18T16:40:56.734Z,6.73
2024-04-18T16:43:38.520Z,5.63
2024-04-18T16:46:09.709Z,6.57
2024-04-18T16:48:40.588Z,7.05
2024-04-18T16:51:11.141Z,7.53
2024-04-18T16:53:56.691Z,7.20
2024-04-18T16:56:40.515Z,6.07
2024-04-18T16:59:11.418Z,6.22
2024-04-18T17:01:41.934Z,7.88
2024-04-18T17:04:12.458Z,6.55
2024-04-18T17:06:48.086Z,7.17
2024-04-18T17:09:20.156Z,7.10
2024-04-18T17:11:53.275Z,6.85
2024-04-18T17:14:37.596Z,7.70
2024-04-18T17:17:08.325Z,7.25
2024-04-18T17:19:57.504Z,6.77
2024-04-18T17:22:25.457Z,6.95
2024-04-18T17:24:55.990Z,7.65
2024-04-18T17:27:29.029Z,8.50
2024-04-18T17:29:59.515Z,7.05
2024-04-18T17:32:29.898Z,6.47
2024-04-18T17:35:01.009Z,7.75
2024-04-18T17:37:45.461Z,7.82
2024-04-18T17:40:24.634Z,8.05
2024-04-18T17:43:07.154Z,8.73
2024-04-18T17:45:37.820Z,6.73
2024-04-18T17:48:18.513Z,6.22
2024-04-18T17:50:49.181Z,7.75
2024-04-18T17:53:19.588Z,6.72
2024-04-18T17:55:51.206Z,6.80
2024-04-18T17:58:24.466Z,6.93
2024-04-18T18:00:54.879Z,7.85
2024-04-18T18:03:37.339Z,7.55
2024-04-18T18:06:09.134Z,7.20
2024-04-18T18:08:39.593Z,9.05
2024-04-18T18:11:23.267Z,7.83
2024-04-18T18:13:58.599Z,8.02
2024-04-18T18:16:30.787Z,8.05
2024-04-18T18:19:01.548Z,8.38
2024-04-18T18:21:32.077Z,8.77
2024-04-18T18:24:02.493Z,8.23
2024-04-18T18:26:36.401Z,8.13
2024-04-18T18:29:09.545Z,9.15
2024-04-18T18:31:51.231Z,8.65
2024-04-18T18:34:21.677Z,8.23
2024-04-18T18:36:49.579Z,8.53
2024-04-18T18:39:20.075Z,8.57
2024-04-18T18:41:47.944Z,9.50
2024-04-18T18:44:21.169Z,7.63
2024-04-18T18:46:49.015Z,8.27
2024-04-18T18:49:19.946Z,8.73
2024-04-18T18:51:50.623Z,8.30
2024-04-18T18:54:18.786Z,10.15
2024-04-18T18:56:49.210Z,8.15
2024-04-18T18:59:33.529Z,8.57
2024-04-18T19:02:04.049Z,8.63
2024-04-18T19:04:54.489Z,8.68
2024-04-18T19:07:22.358Z,8.13
2024-04-18T19:09:52.839Z,8.52
2024-04-18T19:12:20.973Z,10.10
2024-04-18T19:14:55.303Z,9.77
2024-04-18T19:17:23.178Z,8.43
2024-04-18T19:19:54.192Z,9.82
2024-04-18T19:22:22.095Z,9.57
2024-04-18T19:24:52.592Z,9.90
2024-04-18T19:27:20.521Z,9.33
2024-04-18T19:29:53.682Z,10.13
2024-04-18T19:32:21.659Z,10.57
2024-04-18T19:34:52.281Z,10.98
2024-04-18T19:37:20.123Z,9.50
2024-04-18T19:39:50.918Z,10.33
2024-04-18T19:42:18.782Z,11.63
2024-04-18T19:44:49.123Z,11.93
2024-04-18T19:47:19.590Z,11.10
2024-04-18T19:49:50.048Z,11.95
2024-04-18T19:52:17.863Z,11.20
2024-04-18T19:54:48.462Z,11.95
2024-04-18T19:57:16.413Z,13.55
2024-04-18T19:59:46.826Z,13.77
2024-04-18T20:02:14.699Z,13.32
2024-04-18T20:04:47.732Z,13.17
2024-04-18T20:07:15.739Z,16.67
2024-04-18T20:09:46.145Z,14.43
2024-04-18T20:12:14.055Z,15.77
2024-04-18T20:15:04.320Z,17.02
2024-04-18T20:17:32.258Z,19.57
2024-04-18T20:20:05.367Z,20.30
2024-04-18T20:22:33.166Z,19.80
2024-04-18T20:25:03.548Z,22.40
2024-04-18T20:27:40.970Z,22.92
2024-04-18T20:30:11.911Z,21.10
2024-04-18T20:32:59.768Z,20.00
2024-04-18T20:35:33.392Z,21.27
2024-04-18T20:38:01.304Z,22.15
2024-04-18T20:40:31.832Z,21.48
2024-04-18T20:42:59.745Z,21.30
2024-04-18T20:45:31.530Z,20.95
2024-04-18T20:47:59.841Z,22.48
2024-04-18T20:50:33.641Z,24.35
2024-04-18T20:53:01.497Z,21.92
2024-04-18T20:55:32.049Z,21.83
2024-04-18T20:57:59.860Z,22.25
2024-04-18T21:00:30.477Z,23.35
2024-04-18T21:03:00.596Z,21.70
2024-04-18T21:05:33.705Z,25.25
2024-04-18T21:08:01.610Z,21.53
2024-04-18T21:10:31.965Z,27.05
2024-04-18T21:13:02.099Z,24.88
2024-04-18T21:15:34.032Z,24.90
2024-04-18T21:18:01.995Z,27.20
2024-04-18T21:20:34.981Z,24.20
2024-04-18T21:23:02.897Z,24.23
2024-04-18T21:25:33.336Z,22.50
2024-04-18T21:28:01.212Z,24.10
2024-04-18T21:30:31.649Z,21.40
2024-04-18T21:32:59.540Z,23.43
2024-04-18T21:35:38.831Z,26.45
2024-04-18T21:38:06.686Z,21.80
2024-04-18T21:40:37.019Z,23.48
2024-04-18T21:43:05.162Z,25.92
2024-04-18T21:45:35.685Z,21.13
2024-04-18T21:48:03.842Z,22.35
2024-04-18T21:50:35.772Z,25.25
2024-04-18T21:53:06.283Z,24.02
2024-04-18T21:55:36.896Z,21.77
2024-04-18T21:58:05.120Z,23.67
2024-04-18T22:00:35.538Z,24.67
2024-04-18T22:03:03.451Z,22.95
2024-04-18T22:05:34.031Z,27.73
2024-04-18T22:08:02.377Z,24.48
2024-04-18T22:10:35.363Z,24.40
2024-04-18T22:13:03.302Z,22.98
2024-04-18T22:15:33.714Z,23.50
2024-04-18T22:18:02.130Z,24.10
2024-04-18T22:20:32.552Z,25.60
2024-04-18T22:23:13.349Z,24.50
2024-04-18T22:25:46.639Z,26.40
2024-04-18T22:28:14.381Z,26.13
2024-04-18T22:30:44.824Z,26.10
2024-04-18T22:33:12.860Z,28.95
2024-04-18T22:35:43.071Z,26.67
2024-04-18T22:38:13.564Z,25.85
2024-04-18T22:40:44.645Z,26.08
2024-04-18T22:43:14.946Z,25.92
2024-04-18T22:45:43.279Z,26.58
2024-04-18T22:48:13.686Z,25.10
2024-04-18T22:50:43.945Z,26.67
2024-04-18T22:53:14.248Z,26.85
2024-04-18T22:55:44.842Z,24.30
2024-04-18T22:58:14.979Z,24.58
2024-04-18T23:01:05.465Z,23.70
2024-04-18T23:03:33.616Z,22.95
2024-04-18T23:06:17.412Z,26.88
2024-04-18T23:08:45.117Z,24.67
2024-04-18T23:11:19.229Z,25.00
2024-04-18T23:13:47.033Z,24.40
2024-04-18T23:16:17.224Z,25.13
2024-04-18T23:18:45.297Z,26.83
2024-04-18T23:21:15.669Z,28.45
2024-04-18T23:23:43.301Z,26.80
2024-04-18T23:26:13.647Z,27.20
2024-04-18T23:28:44.023Z,29.35
2024-04-18T23:31:14.313Z,31.10
2024-04-18T23:33:42.122Z,25.48
2024-04-18T23:36:12.347Z,28.02
2024-04-18T23:38:40.061Z,29.23
2024-04-18T23:41:10.361Z,29.90
2024-04-18T23:43:38.424Z,30.05
2024-04-18T23:46:11.229Z,30.73
2024-04-18T23:48:39.064Z,27.63
2024-04-18T23:51:09.497Z,28.50
2024-04-18T23:53:37.251Z,29.80
2024-04-18T23:56:08.167Z,26.67
2024-04-18T23:58:35.989Z,26.35
